Time;durP1;ratioP1;P1;durP2;ratioP2;P2;SDS_P1;SDS_P2;PMS_P1;PMS_P2;Temp;Humidity;BMP_temperature;BMP_pressure;BME280_temperature;BME280_humidity;BME280_pressure;Samples;Min_cycle;Max_cycle;Signal;HPM_P1;HPM_P2
2021/10/22 00:00:00;;;;;;;11.23;5.75;;;;;;;6.59;100.00;99473.78;5061994;28;20189;-74
2021/10/22 00:02:26;;;;;;;9.32;5.82;;;;;;;6.68;100.00;99477.88;5046078;28;20189;-74
2021/10/22 00:04:53;;;;;;;6.95;5.63;;;;;;;6.55;100.00;99476.66;5053739;28;20189;-73
2021/10/22 00:07:19;;;;;;;7.60;5.88;;;;;;;6.37;100.00;99479.19;5036889;28;20209;-73
2021/10/22 00:09:46;;;;;;;9.15;5.80;;;;;;;6.19;100.00;99479.97;5042267;28;20192;-74
2021/10/22 00:12:13;;;;;;;10.35;6.63;;;;;;;6.13;100.00;99485.56;5051417;28;21043;-73
2021/10/22 00:14:39;;;;;;;11.68;6.95;;;;;;;6.08;100.00;99482.22;5052231;28;20209;-73
2021/10/22 00:17:08;;;;;;;12.45;7.30;;;;;;;6.01;100.00;99489.63;5055067;28;20255;-74
2021/10/22 00:19:35;;;;;;;9.52;6.22;;;;;;;5.92;100.00;99498.00;5050077;28;20186;-73
2021/10/22 00:22:02;;;;;;;9.20;6.70;;;;;;;6.01;100.00;99498.50;5052725;28;20277;-73
2021/10/22 00:24:28;;;;;;;8.05;5.95;;;;;;;5.97;100.00;99496.03;5048919;28;20197;-74
2021/10/22 00:26:55;;;;;;;11.27;6.40;;;;;;;6.13;100.00;99498.94;5053183;28;20193;-73
2021/10/22 00:29:21;;;;;;;8.73;6.35;;;;;;;6.13;100.00;99490.94;5057457;28;20320;-73
2021/10/22 00:31:48;;;;;;;8.95;6.25;;;;;;;6.14;100.00;99498.88;5044517;28;20284;-73
2021/10/22 00:34:16;;;;;;;11.75;6.65;;;;;;;5.93;100.00;99492.59;5047946;28;20571;-72
2021/10/22 00:36:43;;;;;;;8.50;6.63;;;;;;;5.83;100.00;99505.47;5048713;28;20551;-73
2021/10/22 00:39:10;;;;;;;9.15;6.50;;;;;;;5.85;100.00;99498.25;5049635;28;20192;-73
2021/10/22 00:41:38;;;;;;;10.35;6.47;;;;;;;5.94;100.00;99505.06;5052938;28;20251;-74
2021/10/22 00:44:05;;;;;;;9.50;6.57;;;;;;;5.93;100.00;99497.09;5052423;28;20583;-74
2021/10/22 00:46:34;;;;;;;10.48;6.55;;;;;;;5.78;100.00;99498.56;5063242;28;20220;-74
2021/10/22 00:49:01;;;;;;;11.10;6.50;;;;;;;5.90;100.00;99497.19;5046377;28;20198;-74
2021/10/22 00:51:30;;;;;;;13.57;6.07;;;;;;;5.78;100.00;99501.22;5044558;28;20593;-74
2021/10/22 00:53:56;;;;;;;10.02;6.47;;;;;;;5.77;100.00;99499.50;5043894;28;20249;-74
2021/10/22 00:56:24;;;;;;;8.45;6.00;;;;;;;5.79;100.00;99500.31;5040017;28;20206;-73
2021/10/22 00:58:51;;;;;;;12.80;6.60;;;;;;;5.70;100.00;99500.66;5051889;28;20271;-73
2021/10/22 01:01:18;;;;;;;11.35;6.45;;;;;;;5.73;100.00;99503.22;5052126;28;20217;-74
2021/10/22 01:03:44;;;;;;;10.50;7.10;;;;;;;5.80;100.00;99500.22;5045014;28;20179;-72
2021/10/22 01:06:11;;;;;;;10.55;6.57;;;;;;;5.67;100.00;99504.31;5043293;28;20360;-73
2021/10/22 01:08:39;;;;;;;8.60;6.07;;;;;;;5.73;100.00;99508.56;5033811;28;20186;-74
2021/10/22 01:11:05;;;;;;;11.10;6.45;;;;;;;5.68;100.00;99497.19;5046976;28;20194;-73
2021/10/22 01:13:32;;;;;;;8.77;5.95;;;;;;;5.73;100.00;99501.41;5034583;28;20246;-73
2021/10/22 01:15:59;;;;;;;8.65;5.60;;;;;;;5.70;100.00;99498.88;5032941;28;20186;-74
2021/10/22 01:18:27;;;;;;;9.40;6.28;;;;;;;5.69;100.00;99506.94;5052526;28;20182;-74
2021/10/22 01:20:58;;;;;;;7.28;5.75;;;;;;;5.69;100.00;99514.97;5060839;28;20225;-75
2021/10/22 01:23:25;;;;;;;14.68;7.63;;;;;;;5.70;100.00;99516.69;5052849;28;20185;-74
2021/10/22 01:25:52;;;;;;;9.15;6.38;;;;;;;5.84;100.00;99519.69;5050411;28;20555;-72
2021/10/22 01:28:19;;;;;;;9.35;6.03;;;;;;;5.88;100.00;99518.66;5050213;28;20197;-73
2021/10/22 01:30:47;;;;;;;8.20;6.45;;;;;;;5.82;100.00;99527.75;5048433;28;20231;-73
2021/10/22 01:33:17;;;;;;;11.60;6.93;;;;;;;5.82;100.00;99533.09;5042360;28;20292;-75
2021/10/22 01:35:44;;;;;;;7.50;5.60;;;;;;;5.75;100.00;99533.44;5049842;28;20798;-73
2021/10/22 01:38:12;;;;;;;13.10;6.50;;;;;;;5.76;100.00;99540.50;5036878;28;20932;-73
2021/10/22 01:40:39;;;;;;;7.13;5.90;;;;;;;5.71;100.00;99537.13;5037788;28;20190;-72
2021/10/22 01:43:05;;;;;;;11.18;6.55;;;;;;;5.61;100.00;99532.16;5041539;28;20296;-74
2021/10/22 01:45:32;;;;;;;9.82;6.60;;;;;;;5.64;100.00;99532.03;5040777;28;20190;-74
2021/10/22 01:47:59;;;;;;;10.88;6.00;;;;;;;5.67;100.00;99532.84;5051376;28;20284;-74
2021/10/22 01:50:26;;;;;;;13.77;8.32;;;;;;;5.64;100.00;99524.00;5051650;28;20205;-74
2021/10/22 01:52:53;;;;;;;22.00;15.20;;;;;;;5.56;100.00;99522.56;5041298;28;20287;-71
2021/10/22 01:55:21;;;;;;;15.63;11.25;;;;;;;5.65;100.00;99522.22;5042199;28;20197;-73
2021/10/22 01:57:48;;;;;;;12.00;10.07;;;;;;;5.59;100.00;99519.81;5031987;28;20244;-72
2021/10/22 02:00:14;;;;;;;9.43;6.80;;;;;;;5.44;100.00;99513.25;5032911;28;20189;-74
2021/10/22 02:02:41;;;;;;;9.52;6.05;;;;;;;5.63;100.00;99516.94;5044681;28;20283;-73
2021/10/22 02:05:08;;;;;;;10.02;7.43;;;;;;;5.59;100.00;99514.47;5041964;28;20188;-73
2021/10/22 02:07:35;;;;;;;10.07;6.85;;;;;;;5.48;100.00;99522.00;5051521;28;20201;-72
2021/10/22 02:10:03;;;;;;;10.10;7.35;;;;;;;5.45;100.00;99520.34;5038090;28;20182;-72
2021/10/22 02:12:31;;;;;;;8.57;6.38;;;;;;;5.22;100.00;99524.75;5050092;28;20197;-73
2021/10/22 02:14:58;;;;;;;9.73;6.47;;;;;;;5.03;100.00;99526.34;5048676;28;20221;-74
2021/10/22 02:17:24;;;;;;;8.50;5.40;;;;;;;5.10;100.00;99533.19;5031649;28;20194;-75
2021/10/22 02:19:51;;;;;;;9.43;5.35;;;;;;;5.18;100.00;99533.78;5038530;28;20564;-74
2021/10/22 02:22:17;;;;;;;9.10;5.90;;;;;;;5.02;100.00;99537.97;5051128;28;20299;-73
2021/10/22 02:24:44;;;;;;;11.00;5.95;;;;;;;4.95;100.00;99536.41;5052289;28;20631;-72
2021/10/22 02:27:10;;;;;;;10.73;5.90;;;;;;;4.91;100.00;99529.47;5046483;28;20193;-75
2021/10/22 02:29:38;;;;;;;10.38;7.03;;;;;;;4.89;100.00;99531.31;5046634;28;20320;-74
2021/10/22 02:32:06;;;;;;;12.38;5.15;;;;;;;4.95;100.00;99539.09;5054312;28;20280;-72
2021/10/22 02:34:33;;;;;;;9.00;5.72;;;;;;;5.11;100.00;99542.97;5038651;28;20204;-73
2021/10/22 02:36:59;;;;;;;10.45;6.22;;;;;;;5.17;100.00;99545.38;5040996;28;20821;-74
2021/10/22 02:39:26;;;;;;;8.23;5.18;;;;;;;5.07;100.00;99546.66;5046921;28;20524;-72
2021/10/22 02:41:53;;;;;;;12.82;6.05;;;;;;;5.15;100.00;99543.69;5034324;28;20197;-74
2021/10/22 02:44:20;;;;;;;8.20;6.50;;;;;;;5.04;100.00;99548.56;5051967;28;20586;-73
2021/10/22 02:46:47;;;;;;;10.88;7.65;;;;;;;5.06;100.00;99560.06;5040256;28;20341;-72
2021/10/22 02:49:14;;;;;;;10.65;6.18;;;;;;;5.18;100.00;99556.94;5053525;28;20677;-72
2021/10/22 02:51:41;;;;;;;8.30;6.22;;;;;;;5.24;100.00;99554.03;5045008;28;20193;-72
2021/10/22 02:54:07;;;;;;;12.27;7.32;;;;;;;5.37;100.00;99560.66;5048520;28;20235;-72
2021/10/22 02:56:34;;;;;;;15.50;8.50;;;;;;;5.39;100.00;99550.81;5039172;28;20232;-73
2021/10/22 02:59:00;;;;;;;14.90;8.50;;;;;;;5.52;100.00;99564.56;5041853;28;20960;-73
2021/10/22 03:01:27;;;;;;;12.40;8.32;;;;;;;5.38;100.00;99569.53;5050483;28;20539;-74
2021/10/22 03:03:55;;;;;;;12.60;8.13;;;;;;;5.44;100.00;99570.19;5050270;28;20193;-73
2021/10/22 03:06:21;;;;;;;15.20;9.60;;;;;;;5.58;100.00;99564.31;5041037;28;20990;-74
2021/10/22 03:08:48;;;;;;;13.63;8.90;;;;;;;5.60;100.00;99569.59;5039106;28;20193;-75
2021/10/22 03:11:15;;;;;;;15.07;8.43;;;;;;;5.42;100.00;99560.50;5032640;28;20204;-74
2021/10/22 03:13:41;;;;;;;15.20;10.40;;;;;;;5.46;100.00;99567.47;5054834;28;20189;-74
2021/10/22 03:16:08;;;;;;;16.58;9.60;;;;;;;5.54;100.00;99568.06;5047287;28;20186;-74
2021/10/22 03:18:35;;;;;;;16.88;9.48;;;;;;;5.75;100.00;99573.50;5054383;28;20189;-74
2021/10/22 03:21:03;;;;;;;16.75;10.10;;;;;;;5.52;100.00;99577.06;5044251;28;20287;-74
2021/10/22 03:23:29;;;;;;;17.42;10.00;;;;;;;5.48;100.00;99580.78;5052647;28;20191;-74
2021/10/22 03:25:56;;;;;;;19.10;11.32;;;;;;;5.61;100.00;99582.91;5042921;28;20190;-74
2021/10/22 03:28:22;;;;;;;15.18;10.68;;;;;;;5.80;100.00;99579.53;5039253;28;20188;-74
2021/10/22 03:30:49;;;;;;;16.48;9.60;;;;;;;5.72;100.00;99576.28;5053936;28;20279;-74
2021/10/22 03:33:16;;;;;;;16.90;11.25;;;;;;;5.89;100.00;99583.66;5042946;28;20280;-74
2021/10/22 03:35:42;;;;;;;16.23;10.95;;;;;;;6.07;100.00;99582.94;5046752;28;20205;-73
2021/10/22 03:38:11;;;;;;;19.05;10.05;;;;;;;6.17;100.00;99580.75;5048227;28;20197;-74
2021/10/22 03:40:37;;;;;;;16.20;9.00;;;;;;;6.33;100.00;99584.59;5059311;28;20203;-74
2021/10/22 03:43:04;;;;;;;15.65;10.25;;;;;;;6.31;100.00;99580.19;5045722;28;20189;-73
2021/10/22 03:45:31;;;;;;;16.73;9.85;;;;;;;6.34;100.00;99575.63;5053812;28;20186;-73
2021/10/22 03:47:58;;;;;;;14.50;10.07;;;;;;;6.42;100.00;99581.53;5044338;28;20557;-73
2021/10/22 03:50:25;;;;;;;12.20;9.73;;;;;;;6.29;100.00;99580.28;5047242;28;20280;-74
2021/10/22 03:52:52;;;;;;;14.20;9.30;;;;;;;6.53;100.00;99577.50;5049092;28;20190;-74
2021/10/22 03:55:20;;;;;;;15.02;9.13;;;;;;;6.51;100.00;99576.72;5046411;28;20268;-75
2021/10/22 03:57:47;;;;;;;13.40;9.18;;;;;;;6.46;100.00;99579.56;5045811;28;20197;-74
2021/10/22 04:00:14;;;;;;;17.48;9.77;;;;;;;6.37;100.00;99578.16;5052726;28;20185;-74
2021/10/22 04:02:41;;;;;;;13.63;9.50;;;;;;;6.51;100.00;99582.06;5041984;28;20320;-74
2021/10/22 04:05:08;;;;;;;11.25;8.30;;;;;;;6.51;100.00;99582.06;5034292;28;20590;-75
2021/10/22 04:07:36;;;;;;;16.02;9.40;;;;;;;6.54;100.00;99581.94;5044766;28;20273;-74
2021/10/22 04:10:04;;;;;;;15.68;9.40;;;;;;;6.40;100.00;99583.38;5053191;28;20207;-73
2021/10/22 04:12:32;;;;;;;10.98;8.75;;;;;;;6.32;100.00;99588.16;5049046;28;20285;-74
2021/10/22 04:14:59;;;;;;;16.15;9.35;;;;;;;6.24;100.00;99592.94;5053297;28;20217;-74
2021/10/22 04:17:25;;;;;;;17.52;8.88;;;;;;;6.10;100.00;99588.16;5050740;28;20189;-74
2021/10/22 04:19:52;;;;;;;18.50;10.10;;;;;;;6.15;100.00;99591.53;5053072;28;20197;-74
2021/10/22 04:22:19;;;;;;;16.90;11.02;;;;;;;6.18;100.00;99590.53;5043400;28;20185;-74
2021/10/22 04:24:46;;;;;;;22.80;9.77;;;;;;;6.24;100.00;99595.63;5042181;28;20204;-74
2021/10/22 04:27:12;;;;;;;17.45;10.07;;;;;;;6.21;100.00;99595.75;5037563;28;20226;-73
2021/10/22 04:29:41;;;;;;;15.77;9.77;;;;;;;6.38;100.00;99598.63;5042436;28;20236;-73
2021/10/22 04:32:08;;;;;;;14.23;9.27;;;;;;;6.46;100.00;99592.94;5055721;28;20194;-73
2021/10/22 04:34:34;;;;;;;21.90;10.18;;;;;;;6.39;100.00;99592.34;5042966;28;20243;-73
2021/10/22 04:37:21;;;;;;;14.07;8.90;;;;;;;6.54;100.00;99604.22;5049020;28;20203;-73
2021/10/22 04:42:32;;;;;;;11.80;8.15;;;;;;;6.58;100.00;99600.47;5053140;28;20681;-73
2021/10/22 04:45:01;;;;;;;14.43;8.80;;;;;;;6.41;100.00;99603.84;5039845;28;20273;-74
2021/10/22 04:47:27;;;;;;;13.95;8.63;;;;;;;6.53;100.00;99602.47;5052238;28;20189;-73
2021/10/22 04:49:54;;;;;;;11.93;7.78;;;;;;;6.43;100.00;99607.31;5055718;28;20204;-73
2021/10/22 04:52:20;;;;;;;10.70;8.55;;;;;;;6.41;100.00;99611.00;5042364;28;20522;-75
2021/10/22 04:54:47;;;;;;;18.38;8.95;;;;;;;6.49;100.00;99611.56;5049664;28;20201;-74
2021/10/22 04:57:13;;;;;;;14.52;8.18;;;;;;;6.56;100.00;99617.53;5045230;28;20212;-74
2021/10/22 04:59:40;;;;;;;14.60;8.35;;;;;;;6.49;100.00;99622.28;5052569;28;20186;-73
2021/10/22 05:02:08;;;;;;;10.80;8.05;;;;;;;6.32;100.00;99620.25;5056788;28;20208;-73
2021/10/22 05:04:35;;;;;;;12.82;7.72;;;;;;;6.42;100.00;99616.31;5051093;28;20189;-73
2021/10/22 05:07:01;;;;;;;13.40;7.95;;;;;;;6.46;100.00;99617.03;5062551;28;20189;-73
2021/10/22 05:09:28;;;;;;;13.80;7.82;;;;;;;6.41;100.00;99619.88;5044966;28;20197;-73
2021/10/22 05:11:55;;;;;;;13.63;7.78;;;;;;;6.38;100.00;99609.31;5050717;28;20186;-75
2021/10/22 05:14:22;;;;;;;15.05;8.18;;;;;;;6.42;100.00;99610.94;5052449;28;20215;-74
2021/10/22 05:16:48;;;;;;;16.60;7.90;;;;;;;6.35;100.00;99606.75;5052227;28;20196;-74
2021/10/22 05:19:16;;;;;;;12.52;8.68;;;;;;;6.13;100.00;99612.13;5052777;28;20192;-74
2021/10/22 05:21:43;;;;;;;13.57;8.43;;;;;;;6.30;100.00;99610.56;5053084;28;20205;-73
2021/10/22 05:24:10;;;;;;;13.75;8.95;;;;;;;6.29;100.00;99603.47;5050419;28;20204;-74
2021/10/22 05:26:36;;;;;;;12.32;7.32;;;;;;;6.01;100.00;99613.44;5043451;28;20645;-74
2021/10/22 05:29:03;;;;;;;11.00;7.30;;;;;;;5.78;100.00;99613.44;5047586;28;20316;-73
2021/10/22 05:31:29;;;;;;;16.95;7.50;;;;;;;5.93;100.00;99612.00;5052790;28;20241;-73
2021/10/22 05:33:56;;;;;;;13.32;7.25;;;;;;;6.06;100.00;99615.97;5052151;28;20269;-73
2021/10/22 05:36:24;;;;;;;10.52;7.68;;;;;;;6.01;100.00;99608.09;5052018;28;20663;-73
2021/10/22 05:38:51;;;;;;;11.30;7.55;;;;;;;5.92;100.00;99602.22;5052433;28;20237;-72
2021/10/22 05:41:18;;;;;;;12.55;7.53;;;;;;;5.92;100.00;99602.22;5052169;28;20193;-72
2021/10/22 05:43:45;;;;;;;11.00;7.03;;;;;;;5.80;100.00;99609.78;5052311;28;20616;-72
2021/10/22 05:46:12;;;;;;;19.98;9.00;;;;;;;5.74;100.00;99611.81;5051390;28;20225;-73
2021/10/22 05:48:39;;;;;;;14.98;10.73;;;;;;;5.84;100.00;99613.22;5051961;28;20209;-73
2021/10/22 05:51:06;;;;;;;11.80;8.00;;;;;;;5.91;100.00;99614.72;5051560;28;20189;-72
2021/10/22 05:53:34;;;;;;;15.85;8.52;;;;;;;5.93;100.00;99612.00;5051573;28;20296;-73
2021/10/22 05:56:00;;;;;;;13.13;8.00;;;;;;;5.94;100.00;99617.31;5051359;28;20213;-73
2021/10/22 05:58:27;;;;;;;18.83;8.63;;;;;;;5.91;100.00;99613.84;5051416;28;20588;-73
2021/10/22 06:00:53;;;;;;;18.48;8.82;;;;;;;5.87;100.00;99621.09;5051392;28;20273;-73
2021/10/22 06:03:20;;;;;;;14.75;8.65;;;;;;;5.64;100.00;99622.84;5051424;28;20228;-74
2021/10/22 06:05:51;;;;;;;16.17;9.75;;;;;;;5.55;100.00;99622.34;5051193;28;20189;-74
2021/10/22 06:08:18;;;;;;;20.15;8.77;;;;;;;5.49;100.00;99622.56;5050613;28;20284;-73
2021/10/22 06:10:46;;;;;;;20.70;8.55;;;;;;;5.37;100.00;99626.56;5051226;28;20625;-73
2021/10/22 06:13:14;;;;;;;15.63;8.35;;;;;;;5.37;100.00;99630.09;5051238;28;20197;-73
2021/10/22 06:15:41;;;;;;;26.33;9.10;;;;;;;5.15;100.00;99643.31;5050968;28;20660;-74
2021/10/22 06:18:08;;;;;;;15.68;8.52;;;;;;;5.09;100.00;99637.31;5051557;28;20189;-74
2021/10/22 06:20:43;;;;;;;15.57;8.27;;;;;;;4.96;100.00;99647.56;5050327;28;20225;-71
2021/10/22 06:25:56;;;;;;;19.15;9.30;;;;;;;4.96;100.00;99664.44;5051061;28;20192;-74
2021/10/22 06:28:22;;;;;;;19.08;9.13;;;;;;;5.18;100.00;99672.59;5051170;28;20211;-74
2021/10/22 06:30:49;;;;;;;26.65;10.10;;;;;;;5.39;100.00;99672.78;5051232;28;20367;-73
2021/10/22 06:33:15;;;;;;;17.17;9.30;;;;;;;5.50;100.00;99675.06;5050659;28;20193;-73
2021/10/22 06:35:44;;;;;;;15.13;8.77;;;;;;;5.73;100.00;99676.88;5050660;28;20205;-72
2021/10/22 06:38:11;;;;;;;23.88;9.30;;;;;;;5.75;100.00;99689.25;5051280;28;20607;-72
2021/10/22 06:40:37;;;;;;;19.50;9.70;;;;;;;5.82;100.00;99682.75;5051222;28;20303;-73
2021/10/22 06:43:06;;;;;;;13.05;8.07;;;;;;;6.00;99.40;99686.56;5050749;28;20195;-73
2021/10/22 06:45:32;;;;;;;11.25;8.27;;;;;;;6.15;97.05;99686.91;5050638;28;20197;-73
2021/10/22 06:47:59;;;;;;;11.30;7.50;;;;;;;6.16;97.15;99697.53;5053739;28;20276;-72
2021/10/22 06:50:26;;;;;;;13.10;8.35;;;;;;;6.03;97.46;99706.94;5053711;28;20212;-74
2021/10/22 06:52:53;;;;;;;13.35;7.82;;;;;;;6.23;97.23;99716.91;5054357;28;20283;-72
2021/10/22 06:55:19;;;;;;;13.50;6.50;;;;;;;6.33;95.12;99723.66;5053864;28;20211;-74
2021/10/22 06:57:46;;;;;;;11.23;7.20;;;;;;;6.35;94.98;99727.09;5053420;28;20631;-73
2021/10/22 07:00:14;;;;;;;13.52;8.50;;;;;;;6.41;93.89;99732.22;5053239;28;20193;-75
2021/10/22 07:02:48;;;;;;;13.82;8.02;;;;;;;6.50;94.04;99735.47;5053998;28;20675;-73
2021/10/22 07:05:25;;;;;;;14.68;8.25;;;;;;;6.57;92.89;99737.84;5053313;28;20200;-74
2021/10/22 07:07:51;;;;;;;14.07;7.78;;;;;;;6.40;93.67;99743.88;5054805;28;20193;-73
2021/10/22 07:10:18;;;;;;;9.50;7.43;;;;;;;6.61;92.55;99752.00;5052318;28;20612;-73
2021/10/22 07:12:44;;;;;;;16.50;7.20;;;;;;;6.58;93.07;99754.75;5052826;28;20427;-73
2021/10/22 07:15:11;;;;;;;15.57;7.45;;;;;;;6.62;93.25;99751.91;5053322;28;20229;-73
2021/10/22 07:17:39;;;;;;;16.02;8.10;;;;;;;6.67;93.25;99765.09;5045857;28;20197;-74
2021/10/22 07:20:07;;;;;;;12.75;7.80;;;;;;;6.82;91.73;99755.59;5054274;28;20227;-75
2021/10/22 07:22:34;;;;;;;11.23;7.55;;;;;;;6.97;89.98;99763.03;5054320;28;20205;-74
2021/10/22 07:25:03;;;;;;;10.18;7.50;;;;;;;6.88;90.49;99758.91;5054725;28;20733;-74
2021/10/22 07:27:30;;;;;;;13.88;8.50;;;;;;;6.83;89.26;99766.25;5054284;28;20200;-71
2021/10/22 07:29:57;;;;;;;10.40;7.18;;;;;;;6.83;88.60;99766.25;5054154;28;20279;-74
2021/10/22 07:32:23;;;;;;;14.60;7.63;;;;;;;6.83;88.61;99773.41;5054014;28;20646;-73
2021/10/22 07:34:51;;;;;;;12.43;7.88;;;;;;;6.79;89.04;99787.84;5054528;28;20290;-73
2021/10/22 07:37:18;;;;;;;14.23;8.20;;;;;;;6.73;89.66;99780.06;5054365;28;20308;-73
2021/10/22 07:39:44;;;;;;;10.52;6.22;;;;;;;6.88;88.92;99788.34;5054291;28;20194;-73
2021/10/22 07:42:11;;;;;;;10.20;6.60;;;;;;;6.85;88.59;99784.91;5053967;28;20208;-74
2021/10/22 07:44:38;;;;;;;14.23;8.05;;;;;;;6.87;88.18;99791.06;5053481;28;20201;-74
2021/10/22 07:47:04;;;;;;;13.65;7.57;;;;;;;6.80;88.63;99785.09;5053429;28;20549;-74
2021/10/22 07:49:31;;;;;;;12.60;7.80;;;;;;;6.71;88.40;99788.13;5053374;28;20189;-73
2021/10/22 07:51:59;;;;;;;11.05;7.95;;;;;;;6.76;88.70;99796.88;5053992;28;20204;-72
2021/10/22 07:54:26;;;;;;;11.68;8.40;;;;;;;6.89;88.49;99794.56;5053974;28;20263;-72
2021/10/22 07:56:53;;;;;;;11.15;8.20;;;;;;;6.85;88.93;99807.22;5052509;28;20221;-72
2021/10/22 07:59:23;;;;;;;12.77;8.05;;;;;;;6.84;88.80;99802.78;5052503;28;20312;-73
2021/10/22 08:01:50;;;;;;;9.27;8.00;;;;;;;7.09;88.31;99799.13;5053736;28;20197;-73
2021/10/22 08:04:16;;;;;;;24.40;15.20;;;;;;;7.24;87.33;99800.31;5052624;28;20208;-73
2021/10/22 08:06:43;;;;;;;13.45;8.75;;;;;;;7.27;85.73;99808.22;5052990;28;20201;-73
2021/10/22 08:09:11;;;;;;;8.88;7.18;;;;;;;7.23;85.87;99809.28;5052286;28;20204;-74
2021/10/22 08:11:38;;;;;;;13.60;7.63;;;;;;;7.29;87.04;99807.22;5070000;28;20622;-73
2021/10/22 08:14:04;;;;;;;11.07;8.07;;;;;;;7.27;87.15;99803.72;5070822;28;20611;-73
2021/10/22 08:16:31;;;;;;;15.38;8.35;;;;;;;7.51;84.62;99806.34;5053105;28;20288;-73
2021/10/22 08:18:57;;;;;;;13.85;9.23;;;;;;;7.50;85.47;99816.16;5060178;28;20201;-74
2021/10/22 08:21:44;;;;;;;10.35;7.75;;;;;;;7.75;83.68;99801.72;5073298;28;20295;-73
2021/10/22 08:24:12;;;;;;;13.07;8.82;;;;;;;8.18;82.38;99804.31;5064081;28;20268;-74
2021/10/22 08:26:39;;;;;;;10.32;6.88;;;;;;;8.23;80.68;99807.66;5053311;28;20200;-74
2021/10/22 08:29:06;;;;;;;11.15;8.25;;;;;;;8.42;79.84;99805.06;5053082;28;20230;-75
2021/10/22 08:31:32;;;;;;;12.38;8.38;;;;;;;8.47;79.63;99801.19;5052851;28;20285;-74
2021/10/22 08:33:59;;;;;;;14.73;7.55;;;;;;;8.61;79.23;99799.69;5053000;28;20209;-71
2021/10/22 08:36:26;;;;;;;10.68;6.95;;;;;;;8.58;77.66;99797.16;5052478;28;20217;-74
2021/10/22 08:38:53;;;;;;;9.98;6.97;;;;;;;8.26;78.93;99792.31;5052863;28;20194;-74
2021/10/22 08:41:24;;;;;;;10.65;7.72;;;;;;;8.02;80.78;99791.59;5052442;28;20198;-73
2021/10/22 08:43:53;;;;;;;10.30;7.35;;;;;;;7.91;81.67;99786.72;5052843;28;20217;-73
2021/10/22 08:46:22;;;;;;;12.20;6.60;;;;;;;7.80;83.13;99788.09;5052706;28;20655;-75
2021/10/22 08:48:49;;;;;;;7.63;5.78;;;;;;;7.77;83.00;99796.28;5052726;28;20199;-72
2021/10/22 08:51:19;;;;;;;8.73;5.93;;;;;;;7.89;83.07;99790.38;5052683;28;20193;-74
2021/10/22 08:53:46;;;;;;;10.20;8.20;;;;;;;7.87;83.61;99793.16;5052317;28;20658;-73
2021/10/22 08:56:13;;;;;;;14.02;8.20;;;;;;;8.11;83.27;99790.31;5052710;28;20225;-73
2021/10/22 08:58:41;;;;;;;14.13;7.75;;;;;;;7.94;85.02;99794.63;5052766;28;20632;-74
2021/10/22 09:01:08;;;;;;;14.10;9.43;;;;;;;8.05;85.95;99796.84;5052379;28;20185;-74
2021/10/22 09:03:37;;;;;;;13.60;9.75;;;;;;;8.13;84.53;99797.34;5052123;28;20198;-73
2021/10/22 09:06:09;;;;;;;13.55;8.85;;;;;;;8.35;83.89;99799.06;5052513;28;20202;-74
2021/10/22 09:08:37;;;;;;;13.70;9.20;;;;;;;8.49;82.43;99804.69;5052058;28;20603;-73
2021/10/22 09:11:05;;;;;;;11.57;8.00;;;;;;;8.68;82.12;99809.19;5032089;28;20182;-73
2021/10/22 09:13:34;;;;;;;9.40;6.90;;;;;;;8.82;80.58;99809.44;5032643;28;20694;-72
2021/10/22 09:16:18;;;;;;;14.95;8.27;;;;;;;8.62;80.79;99815.72;5031577;28;20550;-73
2021/10/22 09:18:45;;;;;;;19.88;9.27;;;;;;;8.67;82.86;99818.19;5035030;28;20303;-74
2021/10/22 09:21:12;;;;;;;13.65;8.93;;;;;;;8.64;84.72;99812.97;5052264;28;20238;-74
2021/10/22 09:23:41;;;;;;;12.43;7.43;;;;;;;8.64;82.71;99812.97;5051812;28;20199;-74
2021/10/22 09:26:17;;;;;;;11.02;8.77;;;;;;;8.84;82.84;99818.28;5051184;28;20187;-72
2021/10/22 09:28:44;;;;;;;10.80;7.25;;;;;;;9.09;81.28;99809.91;5051389;28;20269;-73
2021/10/22 09:31:13;;;;;;;11.55;8.30;;;;;;;9.15;80.74;99804.22;5052096;28;20268;-73
2021/10/22 09:33:50;;;;;;;16.05;8.65;;;;;;;9.38;80.13;99807.59;5051395;28;20542;-73
2021/10/22 09:36:33;;;;;;;10.48;6.93;;;;;;;9.29;79.00;99811.59;5051931;28;20215;-73
2021/10/22 09:39:08;;;;;;;13.23;6.45;;;;;;;9.33;79.22;99815.03;5051571;28;20276;-73
2021/10/22 09:41:37;;;;;;;13.68;6.85;;;;;;;9.62;78.94;99818.94;5051867;28;20639;-72
2021/10/22 09:44:19;;;;;;;13.88;6.03;;;;;;;9.77;77.45;99810.09;5051434;28;20216;-73
2021/10/22 09:46:47;;;;;;;10.27;5.63;;;;;;;9.88;76.95;99811.34;5051707;28;20239;-73
2021/10/22 09:49:24;;;;;;;14.13;4.70;;;;;;;9.85;76.26;99809.69;5051720;28;20189;-72
2021/10/22 09:51:54;;;;;;;10.55;5.20;;;;;;;10.09;75.13;99812.94;5050855;28;20201;-73
2021/10/22 09:54:21;;;;;;;8.93;4.63;;;;;;;10.18;75.21;99817.81;5051044;28;20241;-73
2021/10/22 09:56:53;;;;;;;11.77;4.93;;;;;;;10.28;74.62;99814.63;5051348;28;20223;-73
2021/10/22 09:59:24;;;;;;;13.18;6.68;;;;;;;10.49;74.06;99816.22;5050540;28;20243;-75
2021/10/22 10:01:54;;;;;;;11.30;5.93;;;;;;;10.69;73.19;99815.09;5051405;28;20236;-72
2021/10/22 10:04:23;;;;;;;9.50;4.43;;;;;;;11.18;69.66;99822.28;5051063;28;20254;-72
2021/10/22 10:06:50;;;;;;;9.73;3.80;;;;;;;10.74;70.40;99821.13;5051359;28;20634;-72
2021/10/22 10:09:19;;;;;;;8.15;3.63;;;;;;;10.88;69.65;99824.84;5051048;28;20247;-73
2021/10/22 10:11:47;;;;;;;7.88;3.75;;;;;;;10.97;70.11;99824.38;5050547;28;20189;-73
2021/10/22 10:14:15;;;;;;;7.72;4.63;;;;;;;10.91;68.64;99819.31;5050302;28;20727;-72
2021/10/22 10:16:44;;;;;;;11.70;4.15;;;;;;;11.09;68.81;99823.66;5051178;28;20564;-74
2021/10/22 10:19:15;;;;;;;8.77;3.28;;;;;;;10.85;69.44;99832.19;5051008;28;20239;-74
2021/10/22 10:21:45;;;;;;;5.43;2.90;;;;;;;10.52;70.42;99834.03;5049171;28;20192;-72
2021/10/22 10:24:14;;;;;;;7.07;3.42;;;;;;;10.32;70.88;99829.72;5050051;28;20311;-73
2021/10/22 10:26:41;;;;;;;6.63;2.72;;;;;;;10.36;68.69;99828.59;5050992;28;20221;-73
2021/10/22 10:29:12;;;;;;;7.43;3.05;;;;;;;10.19;70.06;99833.00;5048831;28;20326;-73
2021/10/22 10:31:42;;;;;;;10.18;3.45;;;;;;;10.63;67.50;99829.78;5050946;28;20189;-72
2021/10/22 10:34:45;;;;;;;8.80;2.90;;;;;;;10.97;65.54;99838.69;5049843;28;20200;-72
2021/10/22 10:37:26;;;;;;;11.43;3.50;;;;;;;11.27;64.30;99829.81;5049846;28;20299;-74
2021/10/22 10:40:09;;;;;;;8.63;2.70;;;;;;;11.24;64.30;99844.34;5050790;28;20536;-74
2021/10/22 10:42:40;;;;;;;11.15;2.90;;;;;;;10.89;63.51;99840.06;5052690;28;20191;-73
2021/10/22 10:45:13;;;;;;;10.32;2.55;;;;;;;10.29;65.51;99848.69;5058549;28;20185;-74
2021/10/22 10:47:45;;;;;;;7.80;2.40;;;;;;;10.09;67.44;99849.72;5050738;28;20196;-73
2021/10/22 10:50:16;;;;;;;11.27;3.00;;;;;;;10.28;67.42;99853.19;5031188;28;20205;-73
2021/10/22 10:52:50;;;;;;;7.68;3.35;;;;;;;10.57;67.35;99846.28;5031128;28;20754;-71
2021/10/22 10:55:24;;;;;;;8.98;3.58;;;;;;;10.67;67.22;99837.69;5031184;28;20280;-74
2021/10/22 10:57:52;;;;;;;6.10;3.25;;;;;;;10.86;66.67;99843.81;5030696;28;20244;-72
2021/10/22 11:00:22;;;;;;;7.03;2.80;;;;;;;10.62;67.57;99836.09;5050102;28;20184;-72
2021/10/22 11:03:21;;;;;;;9.70;3.30;;;;;;;10.68;67.11;99824.16;5050766;28;20273;-73
2021/10/22 11:06:05;;;;;;;12.05;3.45;;;;;;;10.99;66.01;99828.72;5050193;28;20201;-73
2021/10/22 11:08:53;;;;;;;7.15;3.20;;;;;;;10.84;66.28;99822.34;5050989;28;20193;-74
2021/10/22 11:11:39;;;;;;;6.93;3.25;;;;;;;11.02;65.84;99812.34;5045699;28;20290;-74
2021/10/22 11:14:19;;;;;;;7.47;2.88;;;;;;;10.96;67.27;99818.09;5049999;28;20639;-73
2021/10/22 11:16:56;;;;;;;7.95;3.63;;;;;;;11.06;66.76;99818.44;5050048;28;20315;-74
2021/10/22 11:19:28;;;;;;;6.05;3.03;;;;;;;11.01;66.01;99821.41;5049755;28;20283;-74
2021/10/22 11:22:01;;;;;;;7.05;3.83;;;;;;;11.04;65.93;99829.31;5050669;28;20617;-73
2021/10/22 11:24:30;;;;;;;12.52;4.10;;;;;;;11.36;64.56;99817.66;5050763;28;20190;-71
2021/10/22 11:27:01;;;;;;;9.43;3.05;;;;;;;11.54;63.59;99818.41;5050120;28;20258;-75
2021/10/22 11:29:29;;;;;;;8.63;3.58;;;;;;;11.81;63.00;99814.06;5049822;28;20279;-73
2021/10/22 11:31:58;;;;;;;6.03;3.53;;;;;;;12.03;61.56;99818.19;5050813;28;20630;-73
2021/10/22 11:34:26;;;;;;;6.10;2.97;;;;;;;12.07;61.72;99817.03;5053775;28;20216;-73
2021/10/22 11:37:00;;;;;;;2.80;2.50;;;;;;;12.03;62.32;99821.78;5045589;28;20220;-73
2021/10/22 11:39:31;;;;;;;4.55;2.97;;;;;;;11.34;62.79;99811.47;5034196;28;20187;-73